Sheridan, Indiana
Current Conditions -  °F | °C
As of 5:15 PM on Tuesday 21 Oct 2014 (Local Time) from KTYQ Reporting Station
Overcast Overcast  
Wind Chill: 55°   Ceiling: 5000
Heat Index: 55°   Visibility: 10mi
Dew Point: 41°   Wind: 9mph
Humidity: 59%   Direction: 350°N
Pressure: 30.12"   Gusts: NA
Location:  40.14°N, 86.22°W
Report Text: KTYQ 212115Z AUTO 35008KT 10SM OVC050 13/05 A3012 RMK AO2 T01260048
Loading
Personal Weather Stations






























Interactive Weather Map
Tropical Storm Tracking
New forecast layout! Learn more

10-Day Weather Forecast

Advertisements
Track Severe Weather on mobile